createdAt,value
2022-12-11T00:00:46.679Z,90.00
2022-12-11T00:03:16.117Z,90.24
2022-12-11T00:05:43.923Z,90.18
2022-12-11T00:08:11.152Z,90.00
2022-12-11T00:10:38.237Z,90.10
2022-12-11T00:13:05.659Z,89.96
2022-12-11T00:15:32.285Z,90.24
2022-12-11T00:17:58.807Z,89.64
2022-12-11T00:20:25.489Z,89.79
2022-12-11T00:22:51.963Z,89.62
2022-12-11T00:25:18.923Z,90.03
2022-12-11T00:27:47.042Z,89.87
2022-12-11T00:30:14.943Z,89.27
2022-12-11T00:32:41.489Z,89.61
2022-12-11T00:35:09.087Z,89.62
2022-12-11T00:37:35.894Z,89.82
2022-12-11T00:40:02.511Z,89.54
2022-12-11T00:42:29.076Z,89.49
2022-12-11T00:44:56.446Z,89.60
2022-12-11T00:47:22.983Z,89.71
2022-12-11T00:49:50.112Z,89.51
2022-12-11T00:52:18.175Z,89.81
2022-12-11T00:54:45.035Z,89.44
2022-12-11T00:57:11.577Z,89.52
2022-12-11T00:59:38.160Z,89.60
2022-12-11T01:02:04.842Z,89.66
2022-12-11T01:04:31.417Z,89.12
2022-12-11T01:06:57.958Z,89.35
2022-12-11T01:10:03.068Z,89.27
2022-12-11T01:12:29.580Z,89.36
2022-12-11T01:14:56.133Z,89.21
2022-12-11T01:17:23.103Z,89.39
2022-12-11T01:19:49.617Z,89.23
2022-12-11T01:22:16.087Z,88.94
2022-12-11T01:24:42.668Z,89.28
2022-12-11T01:27:09.238Z,88.92
2022-12-11T01:29:35.704Z,88.54
2022-12-11T01:32:02.167Z,88.85
2022-12-11T01:34:33.283Z,88.30
2022-12-11T01:36:59.715Z,88.02
2022-12-11T01:39:26.176Z,88.12
2022-12-11T01:41:57.967Z,88.33
2022-12-11T01:44:24.472Z,87.90
2022-12-11T01:46:51.124Z,87.98
2022-12-11T01:49:20.735Z,88.13
2022-12-11T01:52:03.091Z,88.32
2022-12-11T01:54:30.118Z,88.53
2022-12-11T01:57:01.409Z,88.45
2022-12-11T01:59:31.175Z,88.07
2022-12-11T02:02:08.099Z,88.23
2022-12-11T02:04:37.562Z,88.42
2022-12-11T02:07:05.229Z,88.38
2022-12-11T02:09:37.733Z,88.75
2022-12-11T02:12:22.732Z,89.23
2022-12-11T02:15:08.317Z,88.95
2022-12-11T02:17:47.587Z,89.35
2022-12-11T02:20:25.832Z,89.50
2022-12-11T02:23:16.711Z,89.63
2022-12-11T02:26:20.487Z,89.99
2022-12-11T02:29:00.958Z,90.08
2022-12-11T02:31:39.388Z,89.58
2022-12-11T02:34:12.551Z,90.00
2022-12-11T02:36:44.008Z,90.17
2022-12-11T02:39:13.111Z,90.12
2022-12-11T02:41:44.575Z,89.85
2022-12-11T02:44:14.217Z,89.87
2022-12-11T02:46:42.142Z,89.80
2022-12-11T02:49:11.828Z,90.08
2022-12-11T02:51:41.163Z,90.03
2022-12-11T02:54:16.210Z,89.84
2022-12-11T02:56:52.644Z,90.00
2022-12-11T02:59:28.663Z,90.40
2022-12-11T03:04:26.940Z,90.28
2022-12-11T03:06:56.516Z,90.69
2022-12-11T03:09:23.124Z,90.79
2022-12-11T03:11:49.634Z,90.97
2022-12-11T03:14:16.155Z,90.86
2022-12-11T03:16:58.059Z,90.87
2022-12-11T03:19:30.649Z,91.03
2022-12-11T03:22:22.127Z,90.92
2022-12-11T03:24:59.320Z,91.16
2022-12-11T03:27:34.798Z,91.09
2022-12-11T03:30:16.231Z,91.33
2022-12-11T03:33:05.049Z,91.74
2022-12-11T03:35:56.686Z,91.37
2022-12-11T03:38:38.963Z,91.37
2022-12-11T03:41:08.698Z,91.30
2022-12-11T03:43:36.335Z,91.48
2022-12-11T03:46:03.324Z,91.60
2022-12-11T03:48:36.085Z,91.31
2022-12-11T03:51:05.518Z,91.54
2022-12-11T03:53:34.349Z,91.49
2022-12-11T03:56:02.714Z,91.54
2022-12-11T03:58:29.863Z,91.94
2022-12-11T04:00:56.374Z,91.86
2022-12-11T04:03:23.257Z,91.79
2022-12-11T04:05:56.030Z,91.64
2022-12-11T04:08:23.203Z,91.71
2022-12-11T04:11:13.597Z,91.50
2022-12-11T04:13:41.499Z,91.51
2022-12-11T04:16:08.641Z,90.97
2022-12-11T04:19:07.820Z,90.76
2022-12-11T04:21:52.780Z,90.96
2022-12-11T04:24:19.400Z,90.66
2022-12-11T04:26:47.797Z,90.94
2022-12-11T04:29:15.158Z,90.86
2022-12-11T04:31:41.771Z,90.61
2022-12-11T04:34:08.361Z,90.34
2022-12-11T04:36:34.981Z,90.28
2022-12-11T04:39:01.654Z,90.04
2022-12-11T04:41:28.406Z,89.72
2022-12-11T04:43:54.915Z,89.56
2022-12-11T04:46:24.067Z,89.64
2022-12-11T04:48:57.078Z,89.75
2022-12-11T04:51:24.426Z,89.76
2022-12-11T04:53:50.965Z,90.29
2022-12-11T04:56:17.675Z,90.07
2022-12-11T04:58:45.011Z,90.71
2022-12-11T05:01:14.259Z,90.90
2022-12-11T05:03:41.107Z,90.92
2022-12-11T05:06:09.096Z,90.62
2022-12-11T05:08:37.380Z,90.71
2022-12-11T05:11:06.944Z,90.64
2022-12-11T05:13:34.070Z,90.86
2022-12-11T05:16:04.084Z,90.91
2022-12-11T05:18:30.657Z,90.54
2022-12-11T05:21:03.203Z,90.59
2022-12-11T05:23:30.518Z,90.33
2022-12-11T05:26:00.450Z,90.60
2022-12-11T05:28:30.725Z,90.31
2022-12-11T05:31:05.190Z,90.89
2022-12-11T05:33:32.561Z,90.69
2022-12-11T05:35:59.190Z,90.77
2022-12-11T05:38:25.958Z,90.91
2022-12-11T05:41:03.899Z,91.02
2022-12-11T05:43:33.440Z,90.94
2022-12-11T05:46:15.657Z,90.81
2022-12-11T05:48:43.962Z,90.78
2022-12-11T05:51:11.346Z,90.74
2022-12-11T05:53:38.693Z,90.77
2022-12-11T05:56:11.933Z,91.13
2022-12-11T05:58:40.275Z,90.62
2022-12-11T06:01:27.254Z,90.93
2022-12-11T06:03:55.084Z,90.82
2022-12-11T06:06:22.399Z,90.37
2022-12-11T06:08:57.174Z,90.35
2022-12-11T06:11:24.608Z,90.47
2022-12-11T06:13:52.001Z,90.35
2022-12-11T06:16:19.098Z,90.48
2022-12-11T06:18:46.101Z,90.10
2022-12-11T06:21:18.937Z,90.64
2022-12-11T06:23:47.487Z,90.48
2022-12-11T06:26:15.099Z,90.66
2022-12-11T06:28:42.100Z,90.43
2022-12-11T06:31:08.795Z,90.66
2022-12-11T06:33:35.589Z,90.48
2022-12-11T06:36:10.858Z,90.36
2022-12-11T06:38:38.140Z,90.56
2022-12-11T06:41:05.751Z,90.74
2022-12-11T06:43:33.416Z,90.97
2022-12-11T06:46:04.166Z,90.81
2022-12-11T06:48:31.510Z,90.58
2022-12-11T06:50:58.018Z,90.86
2022-12-11T06:53:24.496Z,90.68
2022-12-11T06:55:51.041Z,91.10
2022-12-11T06:58:17.666Z,90.98
2022-12-11T07:00:45.490Z,91.10
2022-12-11T07:03:14.959Z,90.96
2022-12-11T07:05:41.535Z,91.58
2022-12-11T07:08:08.083Z,90.91
2022-12-11T07:10:34.683Z,91.20
2022-12-11T07:13:01.180Z,90.98
2022-12-11T07:15:27.676Z,91.01
2022-12-11T07:17:54.382Z,91.00
2022-12-11T07:20:20.897Z,91.05
2022-12-11T07:22:47.378Z,90.85
2022-12-11T07:25:15.860Z,91.01
2022-12-11T07:27:42.395Z,90.91
2022-12-11T07:30:09.909Z,90.60
2022-12-11T07:32:36.593Z,90.47
2022-12-11T07:35:04.034Z,90.66
2022-12-11T07:37:30.576Z,90.87
2022-12-11T07:39:57.034Z,90.46
2022-12-11T07:42:23.830Z,90.16
2022-12-11T07:44:50.566Z,90.54
2022-12-11T07:47:17.050Z,90.31
2022-12-11T07:49:43.533Z,90.53
2022-12-11T07:52:10.173Z,90.30
2022-12-11T07:54:36.970Z,90.62
2022-12-11T07:57:03.514Z,91.01
2022-12-11T07:59:30.065Z,90.60
2022-12-11T08:01:56.633Z,90.41
2022-12-11T08:04:23.718Z,90.68
2022-12-11T08:06:50.214Z,90.62
2022-12-11T08:09:20.901Z,90.26
2022-12-11T08:11:50.006Z,90.10
2022-12-11T08:14:16.622Z,90.55
2022-12-11T08:16:44.277Z,89.94
2022-12-11T08:19:14.076Z,90.32
2022-12-11T08:21:41.172Z,90.06
2022-12-11T08:24:08.636Z,90.36
2022-12-11T08:26:35.264Z,89.99
2022-12-11T08:29:02.197Z,90.20
2022-12-11T08:31:29.854Z,90.20
2022-12-11T08:33:56.897Z,89.71
2022-12-11T08:36:24.040Z,89.83
2022-12-11T08:38:51.377Z,89.43
2022-12-11T08:41:29.046Z,89.17
2022-12-11T08:43:57.698Z,89.10
2022-12-11T08:46:27.747Z,88.44
2022-12-11T08:48:55.765Z,88.77
2022-12-11T08:51:24.719Z,88.66
2022-12-11T08:53:51.908Z,88.30
2022-12-11T08:56:20.600Z,88.22
2022-12-11T08:58:47.886Z,88.01
2022-12-11T09:01:18.062Z,87.62
2022-12-11T09:03:45.083Z,87.70
2022-12-11T09:06:14.745Z,88.10
2022-12-11T09:08:47.196Z,88.89
2022-12-11T09:11:20.231Z,87.96
2022-12-11T09:13:47.004Z,87.96
2022-12-11T09:16:16.874Z,88.12
2022-12-11T09:18:46.922Z,88.46
2022-12-11T09:21:15.333Z,88.08
2022-12-11T09:23:42.444Z,87.45
2022-12-11T09:26:12.265Z,88.08
2022-12-11T09:28:45.697Z,88.38
2022-12-11T09:31:16.446Z,88.26
2022-12-11T09:33:43.636Z,88.27
2022-12-11T09:36:10.418Z,88.33
2022-12-11T09:38:37.380Z,88.22
2022-12-11T09:41:29.671Z,88.17
2022-12-11T09:44:08.017Z,88.74
2022-12-11T09:46:36.491Z,88.63
2022-12-11T09:49:09.470Z,88.04
2022-12-11T09:51:52.050Z,88.19
2022-12-11T09:54:18.553Z,87.90
2022-12-11T09:56:59.291Z,88.80
2022-12-11T10:00:02.712Z,88.27
2022-12-11T10:03:08.048Z,87.87
2022-12-11T10:05:52.925Z,87.35
2022-12-11T10:08:49.139Z,87.36
2022-12-11T10:11:24.769Z,87.44
2022-12-11T10:14:06.045Z,86.86
2022-12-11T10:16:39.551Z,86.83
2022-12-11T10:19:15.332Z,87.73
2022-12-11T10:21:43.351Z,87.33
2022-12-11T10:24:41.937Z,86.78
2022-12-11T10:27:21.220Z,87.11
2022-12-11T10:30:18.287Z,86.96
2022-12-11T10:33:22.797Z,87.27
2022-12-11T10:35:55.726Z,88.01
2022-12-11T10:38:28.327Z,87.20
2022-12-11T10:40:58.615Z,87.17
2022-12-11T10:43:40.363Z,86.63
2022-12-11T10:46:14.473Z,86.19
2022-12-11T10:48:59.607Z,86.31
2022-12-11T10:51:36.102Z,86.24
2022-12-11T10:54:42.426Z,86.23
2022-12-11T10:57:12.000Z,86.50
2022-12-11T10:59:47.242Z,86.63
2022-12-11T11:02:26.659Z,86.81
2022-12-11T11:04:56.101Z,86.68
2022-12-11T11:07:25.104Z,86.41
2022-12-11T11:10:04.327Z,86.20
2022-12-11T11:12:36.988Z,89.00
2022-12-11T11:15:13.997Z,86.05
2022-12-11T11:17:54.673Z,85.76
2022-12-11T11:20:25.637Z,86.53
2022-12-11T11:23:01.881Z,85.89
2022-12-11T11:25:31.041Z,86.31
2022-12-11T11:28:06.485Z,86.12
2022-12-11T11:30:39.303Z,87.12
2022-12-11T11:33:13.706Z,86.34
2022-12-11T11:35:45.702Z,86.25
2022-12-11T11:38:18.519Z,86.41
2022-12-11T11:40:58.124Z,86.42
2022-12-11T11:43:38.721Z,86.98
2022-12-11T11:46:14.192Z,86.21
2022-12-11T11:49:07.840Z,86.66
2022-12-11T11:51:38.845Z,86.58
2022-12-11T11:54:29.395Z,86.77
2022-12-11T11:56:57.231Z,85.88
2022-12-11T11:59:27.141Z,86.19
2022-12-11T12:01:56.766Z,86.34
2022-12-11T12:04:24.506Z,86.08
2022-12-11T12:06:54.344Z,85.47
2022-12-11T12:09:32.084Z,85.42
2022-12-11T12:12:11.447Z,85.06
2022-12-11T12:14:53.557Z,86.39
2022-12-11T12:17:36.240Z,84.73
2022-12-11T12:20:10.598Z,85.91
2022-12-11T12:22:49.228Z,85.31
2022-12-11T12:25:46.470Z,86.12
2022-12-11T12:28:36.307Z,85.61
2022-12-11T12:31:31.189Z,85.85
2022-12-11T12:34:24.842Z,85.11
2022-12-11T12:37:17.645Z,84.38
2022-12-11T12:40:00.956Z,84.48
2022-12-11T12:42:52.576Z,83.59
2022-12-11T12:45:31.115Z,84.72
2022-12-11T12:47:57.654Z,85.38
2022-12-11T12:50:37.309Z,85.21
2022-12-11T12:53:06.179Z,84.63
2022-12-11T12:55:34.911Z,84.79
2022-12-11T12:58:04.390Z,84.48
2022-12-11T13:00:32.849Z,85.00
2022-12-11T13:03:02.875Z,85.95
2022-12-11T13:05:33.401Z,84.87
2022-12-11T13:08:03.310Z,85.03
2022-12-11T13:10:43.210Z,84.80
2022-12-11T13:13:33.013Z,84.74
2022-12-11T13:16:25.412Z,84.75
2022-12-11T13:18:53.014Z,84.95
2022-12-11T13:21:33.735Z,84.48
2022-12-11T13:24:21.627Z,85.50
2022-12-11T13:26:50.191Z,84.77
2022-12-11T13:29:37.725Z,85.04
2022-12-11T13:32:10.058Z,85.12
2022-12-11T13:34:39.081Z,85.16
2022-12-11T13:37:07.425Z,85.12
2022-12-11T13:39:39.938Z,85.08
2022-12-11T13:42:20.264Z,84.32
2022-12-11T13:44:49.357Z,85.15
2022-12-11T13:47:19.861Z,84.10
2022-12-11T13:49:50.732Z,85.35
2022-12-11T13:52:19.699Z,84.48
2022-12-11T13:54:55.734Z,84.11
2022-12-11T13:57:28.505Z,84.99
2022-12-11T13:59:59.662Z,85.64
2022-12-11T14:02:35.736Z,84.72
2022-12-11T14:05:08.444Z,85.22
2022-12-11T14:07:39.289Z,85.08
2022-12-11T14:10:09.947Z,85.34
2022-12-11T14:12:37.222Z,85.08
2022-12-11T14:15:04.892Z,85.87
2022-12-11T14:17:33.973Z,85.19
2022-12-11T14:20:07.310Z,85.81
2022-12-11T14:22:34.366Z,85.04
2022-12-11T14:25:03.739Z,85.03
2022-12-11T14:27:31.034Z,85.46
2022-12-11T14:29:57.595Z,86.12
2022-12-11T14:32:35.154Z,85.09
2022-12-11T14:35:06.058Z,85.05
2022-12-11T14:37:34.114Z,85.45
2022-12-11T14:40:08.920Z,85.96
2022-12-11T14:43:01.318Z,84.73
2022-12-11T14:45:40.630Z,85.46
2022-12-11T14:48:35.783Z,86.09
2022-12-11T14:51:05.240Z,85.37
2022-12-11T14:53:38.496Z,85.15
2022-12-11T14:56:15.443Z,85.10
2022-12-11T14:58:53.119Z,85.65
2022-12-11T15:01:27.685Z,85.17
2022-12-11T15:04:19.796Z,85.21
2022-12-11T15:06:49.451Z,84.61
2022-12-11T15:09:41.541Z,84.39
2022-12-11T15:12:12.940Z,85.24
2022-12-11T15:15:05.926Z,85.15
2022-12-11T15:17:34.656Z,84.52
2022-12-11T15:20:10.822Z,84.95
2022-12-11T15:22:38.041Z,85.04
2022-12-11T15:25:05.955Z,85.31
2022-12-11T15:27:40.098Z,84.37
2022-12-11T15:30:15.770Z,85.38
2022-12-11T15:32:42.555Z,85.74
2022-12-11T15:35:26.990Z,85.51
2022-12-11T15:37:58.477Z,85.77
2022-12-11T15:40:25.590Z,85.29
2022-12-11T15:42:52.402Z,85.27
2022-12-11T15:45:28.495Z,85.40
2022-12-11T15:47:55.748Z,84.84
2022-12-11T15:50:25.829Z,84.84
2022-12-11T15:52:54.654Z,84.75
2022-12-11T15:55:22.550Z,85.32
2022-12-11T15:57:58.418Z,85.23
2022-12-11T16:00:27.659Z,85.47
2022-12-11T16:02:55.289Z,85.14
2022-12-11T16:05:21.915Z,84.94
2022-12-11T16:07:52.286Z,85.69
2022-12-11T16:10:20.264Z,85.13
2022-12-11T16:12:49.558Z,84.78
2022-12-11T16:15:23.113Z,84.86
2022-12-11T16:18:03.520Z,85.59
2022-12-11T16:20:31.321Z,84.88
2022-12-11T16:22:58.835Z,84.99
2022-12-11T16:25:25.896Z,84.42
2022-12-11T16:27:56.421Z,84.44
2022-12-11T16:30:23.862Z,85.34
2022-12-11T16:32:51.110Z,84.53
2022-12-11T16:35:18.782Z,85.33
2022-12-11T16:37:45.986Z,84.70
2022-12-11T16:40:12.592Z,84.27
2022-12-11T16:42:39.130Z,84.32
2022-12-11T16:45:09.171Z,84.12
2022-12-11T16:47:36.069Z,83.81
2022-12-11T16:50:02.681Z,84.17
2022-12-11T16:52:29.682Z,85.08
2022-12-11T16:54:57.089Z,85.32
2022-12-11T16:57:24.218Z,85.00
2022-12-11T16:59:50.794Z,85.17
2022-12-11T17:02:18.380Z,85.07
2022-12-11T17:04:50.691Z,84.74
2022-12-11T17:07:20.368Z,84.30
2022-12-11T17:09:46.965Z,85.11
2022-12-11T17:12:13.757Z,84.72
2022-12-11T17:14:40.278Z,84.46
2022-12-11T17:17:07.001Z,84.10
2022-12-11T17:19:33.648Z,83.80
2022-12-11T17:22:00.382Z,85.06
2022-12-11T17:24:27.093Z,84.95
2022-12-11T17:26:55.387Z,85.21
2022-12-11T17:29:22.133Z,85.24
2022-12-11T17:31:48.624Z,84.38
2022-12-11T17:34:16.004Z,84.70
2022-12-11T17:36:42.642Z,84.85
2022-12-11T17:39:09.306Z,84.12
2022-12-11T17:41:35.832Z,84.80
2022-12-11T17:44:02.328Z,84.52
2022-12-11T17:46:29.019Z,85.00
2022-12-11T17:48:56.466Z,84.78
2022-12-11T17:51:24.645Z,84.92
2022-12-11T17:53:52.479Z,85.28
2022-12-11T17:56:19.120Z,85.26
2022-12-11T17:58:46.004Z,84.81
2022-12-11T18:01:13.280Z,84.58
2022-12-11T18:03:40.871Z,84.50
2022-12-11T18:06:11.763Z,85.40
2022-12-11T18:08:39.375Z,84.45
2022-12-11T18:11:15.830Z,84.67
2022-12-11T18:13:43.767Z,84.67
2022-12-11T18:16:35.781Z,85.02
2022-12-11T18:19:02.351Z,84.66
2022-12-11T18:21:32.000Z,84.96
2022-12-11T18:23:59.598Z,85.09
2022-12-11T18:26:26.734Z,84.19
2022-12-11T18:28:53.682Z,84.71
2022-12-11T18:31:22.280Z,85.00
2022-12-11T18:33:49.298Z,84.63
2022-12-11T18:36:18.034Z,84.88
2022-12-11T18:38:45.072Z,84.45
2022-12-11T18:41:13.217Z,85.09
2022-12-11T18:43:41.457Z,85.01
2022-12-11T18:46:10.269Z,84.48
2022-12-11T18:48:37.348Z,85.88
2022-12-11T18:51:09.197Z,85.39
2022-12-11T18:53:37.030Z,85.33
2022-12-11T18:56:09.058Z,84.74
2022-12-11T18:58:35.906Z,85.47
2022-12-11T19:01:08.222Z,84.59
2022-12-11T19:03:35.563Z,85.47
2022-12-11T19:06:17.662Z,85.42
2022-12-11T19:08:45.009Z,84.73
2022-12-11T19:11:19.947Z,85.22
2022-12-11T19:13:47.474Z,84.77
2022-12-11T19:16:18.507Z,85.55
2022-12-11T19:18:45.606Z,84.83
2022-12-11T19:21:14.007Z,84.60
2022-12-11T19:23:41.725Z,84.96
2022-12-11T19:26:13.067Z,85.08
2022-12-11T19:28:40.300Z,84.80
2022-12-11T19:31:12.379Z,84.61
2022-12-11T19:33:42.766Z,84.48
2022-12-11T19:36:13.237Z,85.21
2022-12-11T19:38:41.873Z,84.50
2022-12-11T19:41:13.171Z,84.50
2022-12-11T19:43:39.715Z,84.49
2022-12-11T19:46:08.098Z,85.87
2022-12-11T19:48:37.626Z,85.77
2022-12-11T19:51:08.903Z,85.73
2022-12-11T19:53:35.529Z,85.69
2022-12-11T19:56:02.695Z,85.46
2022-12-11T19:58:29.516Z,85.50
2022-12-11T20:00:56.473Z,85.42
2022-12-11T20:03:23.395Z,85.08
2022-12-11T20:05:49.974Z,85.23
2022-12-11T20:11:15.881Z,85.35
2022-12-11T20:13:45.982Z,85.34
2022-12-11T20:16:15.769Z,85.06
2022-12-11T20:18:42.542Z,84.62
2022-12-11T20:21:13.327Z,85.32
2022-12-11T20:23:40.261Z,85.09
2022-12-11T20:26:13.480Z,85.30
2022-12-11T20:28:40.797Z,84.70
2022-12-11T20:31:19.510Z,84.61
2022-12-11T20:33:47.171Z,84.93
2022-12-11T20:36:16.613Z,85.13
2022-12-11T20:38:43.547Z,84.83
2022-12-11T20:41:12.847Z,84.58
2022-12-11T20:43:39.687Z,84.74
2022-12-11T20:46:07.832Z,85.25
2022-12-11T20:48:39.129Z,84.67
2022-12-11T20:51:07.896Z,84.73
2022-12-11T20:53:35.327Z,84.56
2022-12-11T20:56:02.634Z,84.43
2022-12-11T20:58:29.155Z,84.79
2022-12-11T21:00:55.671Z,84.74
2022-12-11T21:03:22.176Z,84.65
2022-12-11T21:05:48.770Z,85.68
2022-12-11T21:08:15.363Z,84.78
2022-12-11T21:10:43.908Z,85.06
2022-12-11T21:13:10.982Z,84.49
2022-12-11T21:15:38.700Z,84.57
2022-12-11T21:18:06.435Z,84.82
2022-12-11T21:20:33.223Z,84.87
2022-12-11T21:22:59.994Z,84.61
2022-12-11T21:25:27.418Z,85.00
2022-12-11T21:27:54.024Z,84.70
2022-12-11T21:30:20.576Z,84.57
2022-12-11T21:32:47.603Z,85.06
2022-12-11T21:35:14.427Z,84.13
2022-12-11T21:37:41.909Z,84.82
2022-12-11T21:40:09.462Z,84.49
2022-12-11T21:42:36.091Z,85.19
2022-12-11T21:47:50.248Z,84.69
2022-12-11T21:50:17.242Z,85.59
2022-12-11T21:52:44.166Z,85.55
2022-12-11T21:55:12.819Z,85.31
2022-12-11T21:57:39.818Z,84.79
2022-12-11T22:00:06.878Z,85.31
2022-12-11T22:02:39.074Z,84.83
2022-12-11T22:05:07.702Z,85.15
2022-12-11T22:07:34.202Z,84.85
2022-12-11T22:10:00.736Z,85.21
2022-12-11T22:12:28.660Z,84.89
2022-12-11T22:14:55.174Z,85.21
2022-12-11T22:17:21.998Z,85.30
2022-12-11T22:19:48.722Z,85.01
2022-12-11T22:22:15.214Z,85.04
2022-12-11T22:24:42.613Z,85.17
2022-12-11T22:27:09.270Z,84.97
2022-12-11T22:29:35.790Z,84.92
2022-12-11T22:32:02.634Z,84.85
2022-12-11T22:34:29.258Z,84.50
2022-12-11T22:36:56.667Z,84.64
2022-12-11T22:39:24.536Z,84.83
2022-12-11T22:41:51.100Z,84.49
2022-12-11T22:44:20.164Z,84.55
2022-12-11T22:46:50.169Z,84.46
2022-12-11T22:49:18.275Z,84.74
2022-12-11T22:51:45.312Z,84.71
2022-12-11T22:54:11.975Z,84.92
2022-12-11T22:56:38.761Z,84.47
2022-12-11T22:59:05.312Z,84.34
2022-12-11T23:01:34.782Z,84.84
2022-12-11T23:04:01.518Z,84.45
2022-12-11T23:06:28.659Z,84.66
2022-12-11T23:08:59.224Z,85.04
2022-12-11T23:11:34.917Z,85.43
2022-12-11T23:14:01.566Z,84.67
2022-12-11T23:16:28.444Z,84.50
2022-12-11T23:18:56.099Z,84.50
2022-12-11T23:21:23.242Z,85.00
2022-12-11T23:23:50.419Z,85.15
2022-12-11T23:26:19.238Z,85.36
2022-12-11T23:28:46.820Z,85.11
2022-12-11T23:31:13.955Z,85.14
2022-12-11T23:33:40.649Z,85.39
2022-12-11T23:36:08.033Z,86.02
2022-12-11T23:38:34.609Z,85.62
2022-12-11T23:41:02.267Z,85.91
2022-12-11T23:43:28.862Z,86.77
2022-12-11T23:45:55.430Z,86.04
2022-12-11T23:48:22.003Z,85.95
2022-12-11T23:50:48.758Z,84.84
2022-12-11T23:53:15.481Z,85.29
2022-12-11T23:55:44.349Z,86.29
2022-12-11T23:58:11.093Z,85.71
